createdAt,value
2019-03-02T00:37:40.875Z,6.40
2019-03-02T03:48:56.344Z,6.40
2019-03-02T06:17:45.812Z,6.60
2019-03-02T06:21:46.325Z,6.60
2019-03-02T06:47:30.023Z,6.70
2019-03-02T07:47:30.267Z,7.10
2019-03-02T08:23:39.336Z,7.80
2019-03-02T08:53:20.949Z,8.70
2019-03-02T09:05:44.427Z,8.90
2019-03-02T09:11:55.800Z,9.00
2019-03-02T09:15:14.326Z,9.00
2019-03-02T09:22:46.613Z,9.10
2019-03-02T09:26:04.585Z,9.20
2019-03-02T09:53:49.680Z,9.70
2019-03-02T09:56:25.518Z,9.80
2019-03-02T09:59:18.322Z,9.90
2019-03-02T10:04:53.420Z,10.00
2019-03-02T10:07:39.228Z,10.20
2019-03-02T10:13:50.660Z,10.20
2019-03-02T10:16:57.914Z,10.30
2019-03-02T10:19:28.948Z,10.40
2019-03-02T10:21:59.132Z,10.50
2019-03-02T10:24:31.140Z,10.60
2019-03-02T10:27:11.770Z,10.70
2019-03-02T10:29:57.464Z,10.70
2019-03-02T10:32:44.101Z,10.70
2019-03-02T10:35:29.448Z,10.80
2019-03-02T10:53:31.603Z,11.10
2019-03-02T10:57:03.903Z,11.30
2019-03-02T10:59:54.915Z,11.40
2019-03-02T11:02:26.517Z,11.40
2019-03-02T11:05:20.093Z,11.30
2019-03-02T11:08:26.667Z,11.20
2019-03-02T11:21:25.066Z,11.20
2019-03-02T11:24:11.420Z,11.30
2019-03-02T11:27:09.707Z,11.40
2019-03-02T11:30:15.784Z,11.40
2019-03-02T11:33:31.011Z,11.40
2019-03-02T11:36:33.473Z,11.40
2019-03-02T11:40:10.879Z,11.50
2019-03-02T11:43:53.959Z,11.60
2019-03-02T11:53:57.667Z,11.80
2019-03-02T11:56:59.975Z,11.80
2019-03-02T11:59:56.233Z,11.90
2019-03-02T12:03:02.488Z,11.90
2019-03-02T12:06:12.536Z,11.80
2019-03-02T12:09:12.932Z,11.60
2019-03-02T12:12:02.013Z,11.60
2019-03-02T12:15:02.697Z,11.50
2019-03-02T12:21:21.189Z,11.30
2019-03-02T12:24:14.710Z,11.20
2019-03-02T12:30:03.955Z,11.10
2019-03-02T12:32:53.222Z,11.00
2019-03-02T12:35:34.524Z,11.00
2019-03-02T12:38:29.029Z,10.90
2019-03-02T12:41:25.932Z,10.90
2019-03-02T12:44:59.509Z,10.80
2019-03-02T12:47:52.044Z,10.70
2019-03-02T12:50:58.984Z,10.60
2019-03-02T12:53:34.349Z,10.70
2019-03-02T12:56:32.892Z,10.80
2019-03-02T12:59:39.574Z,10.80
2019-03-02T13:02:50.938Z,10.80
2019-03-02T13:05:48.685Z,10.90
2019-03-02T13:08:28.548Z,10.90
2019-03-02T13:11:15.218Z,10.90
2019-03-02T13:13:52.923Z,10.80
2019-03-02T13:16:45.641Z,10.70
2019-03-02T13:19:31.109Z,10.70
2019-03-02T13:22:19.067Z,10.70
2019-03-02T13:25:16.867Z,10.60
2019-03-02T13:28:02.295Z,10.50
2019-03-02T13:30:39.992Z,10.40
2019-03-02T13:33:36.229Z,10.40
2019-03-02T13:36:16.726Z,10.50
2019-03-02T13:38:57.326Z,10.50
2019-03-02T13:41:46.518Z,10.60
2019-03-02T13:44:34.396Z,10.60
2019-03-02T13:47:35.020Z,10.50
2019-03-02T13:50:26.207Z,10.50
2019-03-02T13:53:15.759Z,10.50
2019-03-02T13:55:59.212Z,10.50
2019-03-02T13:58:51.131Z,10.50
2019-03-02T14:01:27.204Z,10.50
2019-03-02T14:04:14.238Z,10.50
2019-03-02T14:07:14.166Z,10.40
2019-03-02T14:10:09.917Z,10.40
2019-03-02T14:12:57.197Z,10.30
2019-03-02T14:15:39.336Z,10.20
2019-03-02T14:18:17.681Z,10.30
2019-03-02T14:21:16.543Z,10.30
2019-03-02T14:24:15.667Z,10.40
2019-03-02T14:27:02.445Z,10.30
2019-03-02T14:29:53.779Z,10.40
2019-03-02T14:32:44.505Z,10.30
2019-03-02T14:35:31.847Z,10.30
2019-03-02T14:38:20.313Z,10.30
2019-03-02T14:41:15.737Z,10.20
2019-03-02T14:44:05.977Z,10.20
2019-03-02T14:46:48.617Z,10.20
2019-03-02T14:49:39.363Z,10.20
2019-03-02T14:52:18.297Z,10.20
2019-03-02T14:55:04.901Z,10.10
2019-03-02T14:58:03.277Z,10.10
2019-03-02T15:00:54.473Z,10.10
2019-03-02T15:03:42.411Z,10.10
2019-03-02T15:06:36.333Z,10.00
2019-03-02T15:09:25.678Z,10.00
2019-03-02T15:12:08.062Z,9.90
2019-03-02T15:14:46.355Z,9.90
2019-03-02T15:17:27.971Z,9.90
2019-03-02T15:20:10.859Z,9.90
2019-03-02T15:23:00.510Z,9.80
2019-03-02T15:25:51.805Z,9.90
2019-03-02T15:28:44.885Z,9.80
2019-03-02T15:31:39.232Z,9.80
2019-03-02T15:34:31.127Z,9.80
2019-03-02T15:37:31.591Z,9.80
2019-03-02T15:40:10.596Z,9.80
2019-03-02T15:42:47.560Z,9.90
2019-03-02T15:45:48.172Z,9.90
2019-03-02T15:48:29.422Z,9.90
2019-03-02T15:51:26.919Z,9.90
2019-03-02T15:54:15.675Z,9.90
2019-03-02T15:57:02.325Z,9.90
2019-03-02T15:59:36.161Z,9.90
2019-03-02T16:02:22.126Z,9.90
2019-03-02T16:05:07.886Z,10.00
2019-03-02T16:07:51.416Z,10.00
2019-03-02T16:10:45.092Z,10.00
2019-03-02T16:13:29.243Z,10.10
2019-03-02T16:16:33.917Z,10.00
2019-03-02T16:19:38.228Z,10.10
2019-03-02T16:22:39.994Z,10.00
2019-03-02T16:25:24.200Z,10.00
2019-03-02T16:28:06.067Z,10.00
2019-03-02T16:30:52.764Z,10.00
2019-03-02T16:33:39.444Z,10.00
2019-03-02T16:36:36.240Z,10.00
2019-03-02T16:39:26.340Z,10.00
2019-03-02T16:42:21.002Z,10.00
2019-03-02T16:45:21.568Z,10.00
2019-03-02T16:48:12.659Z,10.00
2019-03-02T16:50:50.054Z,9.90
2019-03-02T16:53:41.791Z,10.00
2019-03-02T16:56:21.235Z,10.00
2019-03-02T16:59:04.019Z,10.00
2019-03-02T17:01:52.525Z,10.00
2019-03-02T17:04:34.781Z,10.00
2019-03-02T17:07:35.065Z,10.00
2019-03-02T17:10:29.406Z,10.00
2019-03-02T17:13:27.804Z,10.00
2019-03-02T17:16:18.907Z,10.00
2019-03-02T17:19:16.461Z,10.10
2019-03-02T17:21:56.326Z,10.10
2019-03-02T17:24:56.878Z,10.10
2019-03-02T17:27:58.253Z,10.10
2019-03-02T17:31:05.844Z,10.10
2019-03-02T17:34:03.903Z,10.10
2019-03-02T17:36:42.903Z,10.10
2019-03-02T17:39:27.874Z,10.10
2019-03-02T17:42:15.994Z,10.10
2019-03-02T17:45:13.843Z,10.10
2019-03-02T17:47:51.856Z,10.10
2019-03-02T17:50:36.963Z,10.10
2019-03-02T17:53:32.838Z,10.10
2019-03-02T17:56:41.011Z,10.20
2019-03-02T17:59:25.594Z,10.20
2019-03-02T18:02:14.055Z,10.20
2019-03-02T18:05:11.642Z,10.20
2019-03-02T18:07:53.068Z,10.20
2019-03-02T18:10:34.027Z,10.20
2019-03-02T18:13:21.299Z,10.20
2019-03-02T18:16:09.651Z,10.20
2019-03-02T18:18:39.434Z,10.20
2019-03-02T18:21:15.347Z,10.20
2019-03-02T18:23:46.626Z,10.20
2019-03-02T18:26:24.081Z,10.20
2019-03-02T18:29:02.540Z,10.20
2019-03-02T18:31:34.127Z,10.20
2019-03-02T18:34:14.938Z,10.20
2019-03-02T18:36:45.973Z,10.20
2019-03-02T18:39:17.963Z,10.20
2019-03-02T18:41:50.245Z,10.20
2019-03-02T18:44:21.286Z,10.20
2019-03-02T18:46:53.224Z,10.30
2019-03-02T18:49:43.271Z,10.30
2019-03-02T18:52:40.465Z,10.20
2019-03-02T18:55:11.007Z,10.30
2019-03-02T18:57:42.196Z,10.30
2019-03-02T19:00:16.589Z,10.30
2019-03-02T19:02:49.493Z,10.30
2019-03-02T19:05:28.550Z,10.30
2019-03-02T19:08:02.326Z,10.20
2019-03-02T19:10:34.361Z,10.20
2019-03-02T19:13:07.955Z,10.20
2019-03-02T19:15:37.095Z,10.20
2019-03-02T19:18:07.465Z,10.20
2019-03-02T19:20:36.905Z,10.20
2019-03-02T19:23:09.485Z,10.20
2019-03-02T19:25:40.032Z,10.10
2019-03-02T19:28:09.563Z,10.10
2019-03-02T19:30:39.137Z,10.20
2019-03-02T19:33:09.364Z,10.10
2019-03-02T19:35:58.408Z,10.10
2019-03-02T19:38:31.206Z,10.10
2019-03-02T19:41:02.369Z,10.10
2019-03-02T19:43:37.707Z,10.00
2019-03-02T19:46:07.220Z,10.00
2019-03-02T19:48:51.930Z,10.00
2019-03-02T19:51:27.860Z,9.90
2019-03-02T19:54:07.047Z,9.90
2019-03-02T19:56:39.276Z,9.80
2019-03-02T19:59:08.702Z,9.80
2019-03-02T20:01:53.128Z,9.80
2019-03-02T20:04:25.204Z,9.70
2019-03-02T20:06:54.667Z,9.70
2019-03-02T20:09:26.046Z,9.70
2019-03-02T20:11:55.555Z,9.70
2019-03-02T20:14:25.058Z,9.70
2019-03-02T20:16:54.776Z,9.70
2019-03-02T20:19:25.349Z,9.70
2019-03-02T20:21:54.731Z,9.70
2019-03-02T20:24:24.251Z,9.80
2019-03-02T20:26:54.807Z,9.80
2019-03-02T20:29:25.404Z,9.70
2019-03-02T20:31:54.835Z,9.70
2019-03-02T20:34:24.303Z,9.70
2019-03-02T20:36:53.816Z,9.60
2019-03-02T20:39:24.583Z,9.70
2019-03-02T20:41:56.122Z,9.70
2019-03-02T20:44:25.320Z,9.70
2019-03-02T20:46:54.763Z,9.80
2019-03-02T20:49:26.305Z,9.70
2019-03-02T20:51:56.588Z,9.70
2019-03-02T20:54:27.809Z,9.70
2019-03-02T20:56:57.239Z,9.70
2019-03-02T20:59:26.801Z,9.70
2019-03-02T21:01:57.101Z,9.70
2019-03-02T21:04:26.427Z,9.70
2019-03-02T21:06:55.681Z,9.70
2019-03-02T21:09:25.279Z,9.70
2019-03-02T21:11:56.863Z,9.70
2019-03-02T21:14:26.233Z,9.70
2019-03-02T21:17:04.578Z,9.70
2019-03-02T21:19:49.949Z,9.70
2019-03-02T21:22:19.845Z,9.70
2019-03-02T21:24:50.230Z,9.70
2019-03-02T21:27:20.845Z,9.70
2019-03-02T21:29:56.059Z,9.70
2019-03-02T21:32:26.353Z,9.60
2019-03-02T21:34:55.992Z,9.60
2019-03-02T21:37:26.340Z,9.60
2019-03-02T21:39:55.712Z,9.60
2019-03-02T21:42:25.290Z,9.50
2019-03-02T21:44:54.728Z,9.50
2019-03-02T21:47:24.226Z,9.40
2019-03-02T21:49:53.759Z,9.40
2019-03-02T21:52:25.352Z,9.30
2019-03-02T21:54:56.864Z,9.30
2019-03-02T21:57:27.170Z,9.30
2019-03-02T21:59:56.698Z,9.30
2019-03-02T22:02:26.766Z,9.20
2019-03-02T22:04:56.156Z,9.30
2019-03-02T22:07:25.696Z,9.30
2019-03-02T22:09:55.116Z,9.30
2019-03-02T22:12:24.612Z,9.30
2019-03-02T22:14:57.830Z,9.40
2019-03-02T22:17:29.502Z,9.40
2019-03-02T22:19:58.861Z,9.40
2019-03-02T22:22:29.351Z,9.40
2019-03-02T22:24:58.756Z,9.40
2019-03-02T22:27:30.248Z,9.40
2019-03-02T22:30:02.815Z,9.40
2019-03-02T22:32:32.154Z,9.40
2019-03-02T22:35:02.781Z,9.40
2019-03-02T22:37:33.231Z,9.50
2019-03-02T22:40:02.816Z,9.50
2019-03-02T22:42:33.019Z,9.50
2019-03-02T22:45:04.039Z,9.50
2019-03-02T22:47:33.290Z,9.50
2019-03-02T22:50:02.866Z,9.50
2019-03-02T22:52:32.283Z,9.50
2019-03-02T22:55:01.823Z,9.50
2019-03-02T22:57:31.309Z,9.50
2019-03-02T23:00:50.689Z,9.50
2019-03-02T23:03:19.541Z,9.50
2019-03-02T23:05:48.967Z,9.60
2019-03-02T23:08:19.330Z,9.50
2019-03-02T23:10:48.867Z,9.50
2019-03-02T23:13:19.122Z,9.60
2019-03-02T23:15:48.701Z,9.60
2019-03-02T23:18:18.133Z,9.60
2019-03-02T23:20:47.628Z,9.60
2019-03-02T23:23:18.912Z,9.60
2019-03-02T23:25:48.296Z,9.60
2019-03-02T23:28:17.905Z,9.60
2019-03-02T23:30:49.389Z,9.60
2019-03-02T23:33:19.735Z,9.60
2019-03-02T23:35:51.020Z,9.60
2019-03-02T23:38:20.567Z,9.60
2019-03-02T23:40:51.222Z,9.60
2019-03-02T23:43:22.912Z,9.60
2019-03-02T23:45:58.418Z,9.70
2019-03-02T23:48:34.772Z,9.70
2019-03-02T23:51:37.771Z,9.70
2019-03-02T23:54:08.579Z,9.70
2019-03-02T23:56:49.536Z,9.70
2019-03-02T23:59:20.236Z,9.70
